createdAt,value
2018-12-31T00:01:39.689Z,3.89
2018-12-31T00:06:43.107Z,3.90
2018-12-31T00:11:47.613Z,3.89
2018-12-31T00:16:51.089Z,3.87
2018-12-31T00:21:54.506Z,3.85
2018-12-31T00:26:57.909Z,3.88
2018-12-31T00:32:01.483Z,3.89
2018-12-31T00:37:04.855Z,3.91
2018-12-31T00:42:08.351Z,3.90
2018-12-31T00:47:11.759Z,3.90
2018-12-31T00:52:15.070Z,3.91
2018-12-31T00:57:18.521Z,3.90
2018-12-31T01:02:21.860Z,3.89
2018-12-31T01:07:25.339Z,3.88
2018-12-31T01:12:28.716Z,3.89
2018-12-31T01:17:32.143Z,3.87
2018-12-31T01:22:35.521Z,3.86
2018-12-31T01:27:38.940Z,3.87
2018-12-31T01:32:42.187Z,3.88
2018-12-31T01:37:45.587Z,3.90
2018-12-31T01:42:48.849Z,3.90
2018-12-31T01:47:52.148Z,3.92
2018-12-31T01:52:55.568Z,3.96
2018-12-31T01:57:58.829Z,3.95
2018-12-31T02:03:02.092Z,3.99
2018-12-31T02:08:05.468Z,3.98
2018-12-31T02:13:08.760Z,3.99
2018-12-31T02:18:12.239Z,4.03
2018-12-31T02:23:15.500Z,4.02
2018-12-31T02:28:18.762Z,4.01
2018-12-31T02:33:22.241Z,4.04
2018-12-31T02:38:25.522Z,4.05
2018-12-31T02:43:28.801Z,4.04
2018-12-31T02:48:32.150Z,4.00
2018-12-31T02:53:35.551Z,4.00
2018-12-31T02:58:39.065Z,4.01
2018-12-31T03:03:42.334Z,4.02
2018-12-31T03:08:45.724Z,4.02
2018-12-31T03:13:49.009Z,3.99
2018-12-31T03:18:52.380Z,3.99
2018-12-31T03:23:55.841Z,3.98
2018-12-31T03:28:59.101Z,3.99
2018-12-31T03:34:02.377Z,3.98
2018-12-31T03:39:07.289Z,3.99
2018-12-31T03:44:10.585Z,3.98
2018-12-31T03:49:13.965Z,4.00
2018-12-31T03:54:17.230Z,4.00
2018-12-31T03:59:20.521Z,3.97
2018-12-31T04:04:24.952Z,3.97
2018-12-31T04:09:28.220Z,3.94
2018-12-31T04:14:31.583Z,3.98
2018-12-31T04:19:34.980Z,3.94
2018-12-31T04:24:38.289Z,3.98
2018-12-31T04:29:41.546Z,3.97
2018-12-31T04:34:44.970Z,3.95
2018-12-31T04:39:48.241Z,3.97
2018-12-31T04:44:51.714Z,3.98
2018-12-31T04:49:55.029Z,3.90
2018-12-31T04:54:58.399Z,3.95
2018-12-31T05:00:01.658Z,3.96
2018-12-31T05:05:05.344Z,3.91
2018-12-31T05:10:08.635Z,3.96
2018-12-31T05:15:12.092Z,3.94
2018-12-31T05:20:15.424Z,3.96
2018-12-31T05:25:18.702Z,3.95
2018-12-31T05:30:22.112Z,3.94
2018-12-31T05:35:25.399Z,3.92
2018-12-31T05:40:28.901Z,3.89
2018-12-31T05:45:32.204Z,3.90
2018-12-31T05:50:35.660Z,3.89
2018-12-31T05:55:38.906Z,3.87
2018-12-31T06:00:42.470Z,3.89
2018-12-31T06:05:45.723Z,3.90
2018-12-31T06:10:49.132Z,3.84
2018-12-31T06:15:52.436Z,3.85
2018-12-31T06:20:55.804Z,3.79
2018-12-31T06:25:59.187Z,3.86
2018-12-31T06:31:02.453Z,3.80
2018-12-31T06:36:05.809Z,3.86
2018-12-31T06:41:09.169Z,3.82
2018-12-31T06:46:12.433Z,3.85
2018-12-31T06:51:15.881Z,3.85
2018-12-31T06:56:19.228Z,3.84
2018-12-31T07:01:22.524Z,3.80
2018-12-31T07:06:25.777Z,3.81
2018-12-31T07:11:29.037Z,3.78
2018-12-31T07:16:32.384Z,3.77
2018-12-31T07:21:35.627Z,3.80
2018-12-31T07:26:39.095Z,3.79
2018-12-31T07:31:42.348Z,3.83
2018-12-31T07:36:45.771Z,3.88
2018-12-31T07:41:49.130Z,3.88
2018-12-31T07:46:52.548Z,3.90
2018-12-31T07:51:55.806Z,3.93
2018-12-31T07:56:59.160Z,3.97
2018-12-31T08:02:02.576Z,3.98
2018-12-31T08:07:05.988Z,4.04
2018-12-31T08:12:09.421Z,4.05
2018-12-31T08:17:12.753Z,4.04
2018-12-31T08:22:16.131Z,4.10
2018-12-31T08:27:19.389Z,4.15
2018-12-31T08:32:22.782Z,4.10
2018-12-31T08:37:26.184Z,4.08
2018-12-31T08:42:29.492Z,4.20
2018-12-31T08:47:32.752Z,4.17
2018-12-31T08:52:36.204Z,4.17
2018-12-31T08:57:39.653Z,4.26
2018-12-31T09:02:43.059Z,4.21
2018-12-31T09:07:46.401Z,4.19
2018-12-31T09:12:49.698Z,4.27
2018-12-31T09:17:54.116Z,4.25
2018-12-31T09:22:57.482Z,4.38
2018-12-31T09:28:00.803Z,4.39
2018-12-31T09:33:04.122Z,4.48
2018-12-31T09:38:07.507Z,4.52
2018-12-31T09:43:10.892Z,4.40
2018-12-31T09:48:14.187Z,4.38
2018-12-31T09:53:17.622Z,4.40
2018-12-31T09:58:20.901Z,4.43
2018-12-31T10:03:24.328Z,4.52
2018-12-31T10:08:27.592Z,4.42
2018-12-31T10:13:30.936Z,4.46
2018-12-31T10:18:34.404Z,4.44
2018-12-31T10:23:37.687Z,4.39
2018-12-31T10:28:41.009Z,4.43
2018-12-31T10:33:44.497Z,4.44
2018-12-31T10:38:51.205Z,4.51
2018-12-31T10:43:51.244Z,4.58
2018-12-31T10:48:54.672Z,4.56
2018-12-31T10:53:57.976Z,4.64
2018-12-31T10:59:01.723Z,4.73
2018-12-31T11:04:05.824Z,4.59
2018-12-31T11:09:09.456Z,4.52
2018-12-31T11:14:12.900Z,4.63
2018-12-31T11:19:16.172Z,4.73
2018-12-31T11:24:19.817Z,4.66
2018-12-31T11:29:23.322Z,4.73
2018-12-31T11:34:26.684Z,4.77
2018-12-31T11:39:30.052Z,4.82
2018-12-31T11:44:33.614Z,4.77
2018-12-31T11:49:36.861Z,4.72
2018-12-31T11:54:40.274Z,4.79
2018-12-31T11:59:43.820Z,4.68
2018-12-31T12:04:47.139Z,4.64
2018-12-31T12:09:51.327Z,4.71
2018-12-31T12:14:54.832Z,4.77
2018-12-31T12:19:58.345Z,4.79
2018-12-31T12:25:01.645Z,4.73
2018-12-31T12:30:05.612Z,4.79
2018-12-31T12:35:08.978Z,4.88
2018-12-31T12:40:12.348Z,4.89
2018-12-31T12:45:15.806Z,4.70
2018-12-31T12:50:19.087Z,4.89
2018-12-31T12:55:22.668Z,4.96
2018-12-31T13:00:26.105Z,4.94
2018-12-31T13:05:29.640Z,5.02
2018-12-31T13:10:33.129Z,4.95
2018-12-31T13:15:39.682Z,4.86
2018-12-31T13:20:43.218Z,4.89
2018-12-31T13:25:47.688Z,4.82
2018-12-31T13:30:51.074Z,4.91
2018-12-31T13:35:54.519Z,4.90
2018-12-31T13:40:57.891Z,4.91
2018-12-31T13:46:01.319Z,4.86
2018-12-31T13:51:04.753Z,4.88
2018-12-31T13:56:08.437Z,4.86
2018-12-31T14:01:11.871Z,4.87
2018-12-31T14:06:15.447Z,4.90
2018-12-31T14:11:19.049Z,4.87
2018-12-31T14:16:22.579Z,4.89
2018-12-31T14:21:26.108Z,4.89
2018-12-31T14:26:29.555Z,4.89
2018-12-31T14:31:33.209Z,4.86
2018-12-31T14:36:36.779Z,4.85
2018-12-31T14:41:40.140Z,4.85
2018-12-31T14:46:43.705Z,4.85
2018-12-31T14:51:47.184Z,4.88
2018-12-31T14:56:50.720Z,4.89
2018-12-31T15:01:54.127Z,4.84
2018-12-31T15:06:57.496Z,4.82
2018-12-31T15:12:00.896Z,4.82
2018-12-31T15:17:04.420Z,4.85
2018-12-31T15:22:07.923Z,4.84
2018-12-31T15:27:11.517Z,4.82
2018-12-31T15:32:15.065Z,4.83
2018-12-31T15:37:18.540Z,4.84
2018-12-31T15:42:21.961Z,4.86
2018-12-31T15:47:25.476Z,4.84
2018-12-31T15:52:28.966Z,4.83
2018-12-31T15:57:32.535Z,4.83
2018-12-31T16:02:36.021Z,4.84
2018-12-31T16:07:45.594Z,4.86
2018-12-31T16:12:42.965Z,4.79
2018-12-31T16:17:46.384Z,4.78
2018-12-31T16:22:49.773Z,4.85
2018-12-31T16:27:53.314Z,4.86
2018-12-31T16:32:56.755Z,4.84
2018-12-31T16:38:00.159Z,4.85
2018-12-31T16:43:03.624Z,4.81
2018-12-31T16:48:07.036Z,4.82
2018-12-31T16:53:10.589Z,4.80
2018-12-31T16:58:14.241Z,4.83
2018-12-31T17:03:17.934Z,4.86
2018-12-31T17:08:21.326Z,4.87
2018-12-31T17:13:24.920Z,4.88
2018-12-31T17:18:28.268Z,4.89
2018-12-31T17:23:31.729Z,4.91
2018-12-31T17:28:35.085Z,4.91
2018-12-31T17:33:38.735Z,4.92
2018-12-31T17:38:42.425Z,4.92
2018-12-31T17:43:46.033Z,4.93
2018-12-31T17:48:49.597Z,4.93
2018-12-31T17:53:52.980Z,4.91
2018-12-31T17:58:56.544Z,4.92
2018-12-31T18:03:59.890Z,4.95
2018-12-31T18:09:03.395Z,4.96
2018-12-31T18:14:06.837Z,4.99
2018-12-31T18:19:10.345Z,4.99
2018-12-31T18:24:13.843Z,4.95
2018-12-31T18:29:17.196Z,4.98
2018-12-31T18:34:20.768Z,5.02
2018-12-31T18:39:24.117Z,4.98
2018-12-31T18:44:27.416Z,5.07
2018-12-31T18:49:30.693Z,5.10
2018-12-31T18:54:34.086Z,5.10
2018-12-31T18:59:37.618Z,5.11
2018-12-31T19:04:41.012Z,5.12
2018-12-31T19:09:44.452Z,5.15
2018-12-31T19:14:47.804Z,5.15
2018-12-31T19:19:51.089Z,5.19
2018-12-31T19:24:54.364Z,5.19
2018-12-31T19:29:57.711Z,5.16
2018-12-31T19:35:01.008Z,5.14
2018-12-31T19:40:04.566Z,5.17
2018-12-31T19:45:07.891Z,5.15
2018-12-31T19:50:11.391Z,5.12
2018-12-31T19:55:14.912Z,5.13
2018-12-31T20:00:18.328Z,5.14
2018-12-31T20:05:21.693Z,5.13
2018-12-31T20:10:25.167Z,5.14
2018-12-31T20:15:28.608Z,5.13
2018-12-31T20:20:32.256Z,5.13
2018-12-31T20:25:35.648Z,5.12
2018-12-31T20:30:39.228Z,5.12
2018-12-31T20:35:42.784Z,5.17
2018-12-31T20:40:46.193Z,5.15
2018-12-31T20:45:49.816Z,5.13
2018-12-31T20:50:53.153Z,5.11
2018-12-31T20:55:56.610Z,5.15
2018-12-31T21:00:59.883Z,5.10
2018-12-31T21:06:03.289Z,4.93
2018-12-31T21:11:06.770Z,4.81
2018-12-31T21:16:10.223Z,4.80
2018-12-31T21:21:13.708Z,4.82
2018-12-31T21:26:17.204Z,4.81
2018-12-31T21:31:20.563Z,4.86
2018-12-31T21:36:23.988Z,4.85
2018-12-31T21:41:27.486Z,4.90
2018-12-31T21:46:31.164Z,4.89
2018-12-31T21:51:34.665Z,4.92
2018-12-31T21:56:38.161Z,4.91
2018-12-31T22:01:41.668Z,4.98
2018-12-31T22:06:45.139Z,4.93
2018-12-31T22:11:48.506Z,5.00
2018-12-31T22:16:51.940Z,4.99
2018-12-31T22:21:55.221Z,4.98
2018-12-31T22:26:58.561Z,4.94
2018-12-31T22:32:01.976Z,4.91
2018-12-31T22:37:05.403Z,4.89
2018-12-31T22:42:08.683Z,4.82
2018-12-31T22:47:12.073Z,4.79
2018-12-31T22:52:15.344Z,4.79
2018-12-31T22:57:18.736Z,4.79
2018-12-31T23:02:22.005Z,4.79
2018-12-31T23:07:25.293Z,4.83
2018-12-31T23:12:28.725Z,4.89
2018-12-31T23:17:32.196Z,4.91
2018-12-31T23:22:35.604Z,4.94
2018-12-31T23:27:38.884Z,4.96
2018-12-31T23:32:42.266Z,4.97
2018-12-31T23:37:46.100Z,4.97
2018-12-31T23:42:49.601Z,4.98
2018-12-31T23:47:52.907Z,5.01
2018-12-31T23:52:56.411Z,5.00
2018-12-31T23:57:59.672Z,5.05
